Time;durP1;ratioP1;P1;durP2;ratioP2;P2;SDS_P1;SDS_P2;PMS_P1;PMS_P2;Temp;Humidity;BMP_temperature;BMP_pressure;BME280_temperature;BME280_humidity;BME280_pressure;Samples;Min_cycle;Max_cycle;Signal;HPM_P1;HPM_P2
2021/07/04 00:01:46;;;;;;;9.65;7.20;;;22.30;53.50;;;;;;5133547;27;20063;-45
2021/07/04 00:04:12;;;;;;;7.70;5.80;;;22.30;53.60;;;;;;5133725;27;20399;-47
2021/07/04 00:06:37;;;;;;;7.90;5.50;;;22.20;53.60;;;;;;5116093;27;20143;-45
2021/07/04 00:09:03;;;;;;;11.75;5.60;;;22.20;53.60;;;;;;5134185;27;20050;-46
2021/07/04 00:11:29;;;;;;;9.65;5.68;;;22.20;53.70;;;;;;5134364;27;20035;-47
2021/07/04 00:13:55;;;;;;;7.63;5.65;;;22.20;53.60;;;;;;5115043;27;20022;-44
2021/07/04 00:16:21;;;;;;;7.22;5.35;;;22.30;53.30;;;;;;5134093;27;20031;-45
2021/07/04 00:18:46;;;;;;;8.93;5.75;;;22.30;53.20;;;;;;5133261;27;20058;-44
2021/07/04 00:21:12;;;;;;;7.43;5.43;;;22.40;53.10;;;;;;5133713;27;20452;-48
2021/07/04 00:23:38;;;;;;;9.50;5.68;;;22.40;53.00;;;;;;5133475;27;20463;-44
2021/07/04 00:26:05;;;;;;;13.07;5.72;;;22.40;53.60;;;;;;5133263;27;20038;-43
2021/07/04 00:28:32;;;;;;;7.15;5.57;;;22.40;52.90;;;;;;5133835;27;20020;-44
2021/07/04 00:30:58;;;;;;;8.60;5.82;;;22.50;52.80;;;;;;5133275;27;20023;-46
2021/07/04 00:33:24;;;;;;;11.02;5.75;;;22.50;52.80;;;;;;5133722;27;20046;-45
2021/07/04 00:35:50;;;;;;;7.72;5.40;;;22.40;52.80;;;;;;5132990;27;20409;-45
2021/07/04 00:38:16;;;;;;;8.65;5.70;;;22.50;52.90;;;;;;5098449;27;20464;-46
2021/07/04 00:40:43;;;;;;;7.45;5.35;;;22.40;52.80;;;;;;5115345;27;20052;-51
2021/07/04 00:43:09;;;;;;;7.63;5.70;;;22.40;53.50;;;;;;5133404;27;20024;-43
2021/07/04 00:45:36;;;;;;;13.23;5.40;;;22.40;52.90;;;;;;5133137;27;20027;-45
2021/07/04 00:48:02;;;;;;;9.48;5.80;;;22.40;53.00;;;;;;5114644;27;20031;-44
2021/07/04 00:50:30;;;;;;;8.23;5.82;;;22.30;53.10;;;;;;5133231;27;20019;-46
2021/07/04 00:52:57;;;;;;;8.73;5.88;;;22.30;53.20;;;;;;5132944;27;20035;-45
2021/07/04 00:55:24;;;;;;;7.82;5.85;;;22.30;53.30;;;;;;5133055;27;20108;-44
2021/07/04 00:57:50;;;;;;;10.23;6.28;;;22.20;53.40;;;;;;5114138;28;20034;-46
2021/07/04 01:00:20;;;;;;;10.38;6.05;;;22.20;53.40;;;;;;5133668;27;20050;-51
2021/07/04 01:02:46;;;;;;;7.03;5.43;;;22.20;53.40;;;;;;5132708;27;20187;-45
2021/07/04 01:05:15;;;;;;;8.65;5.60;;;22.20;53.50;;;;;;5133322;28;20058;-43
2021/07/04 01:07:41;;;;;;;9.32;5.10;;;22.20;53.60;;;;;;5134904;27;20035;-45
2021/07/04 01:10:09;;;;;;;7.82;5.55;;;22.10;53.60;;;;;;5139626;27;20019;-48
2021/07/04 01:12:35;;;;;;;11.52;5.82;;;22.10;53.60;;;;;;5140307;27;20027;-45
2021/07/04 01:15:03;;;;;;;7.95;5.70;;;22.10;53.70;;;;;;5139514;27;20019;-45
2021/07/04 01:17:30;;;;;;;12.10;5.80;;;22.10;53.80;;;;;;5140123;27;20083;-49
2021/07/04 01:19:58;;;;;;;9.90;5.40;;;22.00;53.80;;;;;;5139535;27;20102;-43
2021/07/04 01:22:27;;;;;;;9.50;6.10;;;22.00;53.80;;;;;;5139841;27;20015;-43
2021/07/04 01:24:54;;;;;;;8.15;6.03;;;22.00;53.90;;;;;;5139268;27;20019;-45
2021/07/04 01:27:20;;;;;;;6.93;5.50;;;21.90;54.00;;;;;;5139728;27;20023;-45
2021/07/04 01:29:46;;;;;;;7.10;5.55;;;21.90;54.20;;;;;;5139800;27;20087;-50
2021/07/04 01:32:12;;;;;;;10.85;6.03;;;21.90;54.30;;;;;;5140287;27;20023;-46
2021/07/04 01:34:38;;;;;;;8.70;5.72;;;21.80;54.30;;;;;;5140032;27;20095;-43
2021/07/04 01:37:04;;;;;;;8.38;5.82;;;21.80;54.50;;;;;;5139716;27;20023;-48
2021/07/04 01:39:29;;;;;;;7.68;5.53;;;21.80;54.70;;;;;;5121594;27;20023;-47
2021/07/04 01:41:56;;;;;;;8.40;5.88;;;21.70;54.70;;;;;;5139872;27;20027;-46
2021/07/04 01:44:22;;;;;;;8.55;5.60;;;21.80;54.70;;;;;;5121722;27;20036;-44
2021/07/04 01:46:48;;;;;;;7.78;5.22;;;21.70;54.60;;;;;;5120905;27;20027;-48
2021/07/04 01:49:13;;;;;;;7.85;5.88;;;21.80;54.70;;;;;;5139960;27;20131;-46
2021/07/04 01:51:39;;;;;;;8.60;5.47;;;21.80;54.60;;;;;;5139827;27;20053;-43
2021/07/04 01:54:05;;;;;;;9.68;5.53;;;21.80;54.70;;;;;;5139069;27;20076;-47
2021/07/04 01:56:31;;;;;;;10.75;5.53;;;21.70;54.70;;;;;;5139948;27;20104;-46
2021/07/04 01:58:57;;;;;;;7.35;5.45;;;21.70;54.70;;;;;;5139126;27;20455;-44
2021/07/04 02:01:22;;;;;;;7.00;5.43;;;21.60;54.90;;;;;;5139906;27;20403;-44
2021/07/04 02:03:49;;;;;;;8.40;5.40;;;21.60;54.90;;;;;;5121162;27;20460;-49
2021/07/04 02:06:15;;;;;;;6.78;5.20;;;21.50;55.20;;;;;;5139486;27;20046;-46
2021/07/04 02:08:41;;;;;;;7.68;5.35;;;21.50;55.30;;;;;;5139842;27;20436;-45
2021/07/04 02:11:07;;;;;;;7.20;5.10;;;21.40;55.40;;;;;;5120551;27;20030;-49
2021/07/04 02:13:33;;;;;;;6.72;5.13;;;21.40;55.40;;;;;;5121460;27;20031;-47
2021/07/04 02:16:17;;;;;;;7.90;5.60;;;21.40;55.40;;;;;;5138893;27;20023;-42
2021/07/04 02:18:44;;;;;;;6.47;5.03;;;21.30;55.50;;;;;;5139911;27;20023;-45
2021/07/04 02:21:10;;;;;;;7.53;4.97;;;21.40;55.50;;;;;;5134923;27;20136;-43
2021/07/04 02:23:36;;;;;;;8.38;5.15;;;21.30;55.40;;;;;;5136495;27;20344;-47
2021/07/04 02:26:03;;;;;;;6.05;4.88;;;21.40;55.30;;;;;;5135580;27;20020;-44
2021/07/04 02:28:32;;;;;;;12.18;5.30;;;21.40;55.20;;;;;;5117924;27;20043;-46
2021/07/04 02:30:58;;;;;;;7.30;4.80;;;21.30;55.20;;;;;;5135837;27;20030;-44
2021/07/04 02:33:25;;;;;;;6.75;4.93;;;21.40;55.10;;;;;;5136045;27;20099;-49
2021/07/04 02:35:54;;;;;;;7.53;5.28;;;21.40;54.90;;;;;;5117361;27;20027;-45
2021/07/04 02:38:20;;;;;;;7.85;5.13;;;21.50;54.90;;;;;;5117760;27;20357;-45
2021/07/04 02:40:48;;;;;;;7.95;4.93;;;21.50;54.80;;;;;;5136388;27;20027;-46
2021/07/04 02:43:17;;;;;;;6.50;5.20;;;21.50;54.80;;;;;;5135584;27;20054;-47
2021/07/04 02:45:44;;;;;;;7.50;4.78;;;21.50;54.90;;;;;;5117323;27;20117;-47
2021/07/04 02:48:11;;;;;;;5.15;4.50;;;21.40;54.90;;;;;;5135046;27;20031;-48
2021/07/04 02:50:38;;;;;;;5.65;5.05;;;21.40;54.90;;;;;;5135619;27;20413;-46
2021/07/04 02:53:05;;;;;;;9.15;4.78;;;21.40;54.90;;;;;;5135490;27;20075;-48
2021/07/04 02:55:31;;;;;;;10.85;5.22;;;21.40;54.90;;;;;;5135372;27;20024;-46
2021/07/04 02:57:57;;;;;;;5.82;5.07;;;21.40;55.00;;;;;;5116673;27;20409;-46
2021/07/04 03:00:25;;;;;;;9.50;5.90;;;21.40;54.80;;;;;;5135240;27;20023;-50
2021/07/04 03:02:51;;;;;;;10.25;5.30;;;21.50;54.80;;;;;;5135209;27;20051;-46
2021/07/04 03:05:17;;;;;;;10.88;5.05;;;21.50;54.80;;;;;;5135259;27;20034;-48
2021/07/04 03:07:44;;;;;;;6.47;5.57;;;21.50;54.80;;;;;;5135202;27;20027;-46
2021/07/04 03:10:13;;;;;;;7.32;5.32;;;21.50;54.90;;;;;;5134554;27;20027;-45
2021/07/04 03:12:39;;;;;;;8.38;5.53;;;21.50;54.80;;;;;;5135397;27;20023;-48
2021/07/04 03:15:07;;;;;;;7.43;5.35;;;21.50;55.40;;;;;;5134574;27;20023;-45
2021/07/04 03:17:33;;;;;;;7.03;5.18;;;21.50;54.70;;;;;;5135092;27;20039;-47
2021/07/04 03:19:58;;;;;;;9.50;5.03;;;21.50;54.60;;;;;;5134715;27;20027;-47
2021/07/04 03:22:24;;;;;;;6.10;5.10;;;21.60;54.70;;;;;;5134934;27;20046;-44
2021/07/04 03:24:50;;;;;;;7.18;4.90;;;21.60;54.80;;;;;;5134906;27;20030;-49
2021/07/04 03:27:17;;;;;;;7.07;5.82;;;21.60;54.60;;;;;;5134403;27;20027;-49
2021/07/04 03:29:43;;;;;;;7.53;5.18;;;21.60;54.50;;;;;;5116600;27;20118;-45
2021/07/04 03:32:09;;;;;;;5.15;4.60;;;21.60;54.50;;;;;;5114887;27;20027;-44
2021/07/04 03:34:35;;;;;;;8.35;5.15;;;21.70;54.40;;;;;;5135017;27;20087;-47
2021/07/04 03:37:01;;;;;;;5.68;5.07;;;21.70;54.30;;;;;;5134079;27;20065;-44
2021/07/04 03:39:27;;;;;;;7.32;5.60;;;21.80;54.30;;;;;;5134864;27;20444;-46
2021/07/04 03:41:53;;;;;;;7.20;4.97;;;21.80;54.20;;;;;;5116220;27;20067;-47
2021/07/04 03:44:19;;;;;;;11.15;5.20;;;21.80;54.30;;;;;;5134314;27;20097;-46
2021/07/04 03:46:44;;;;;;;7.13;5.03;;;21.80;54.20;;;;;;5134257;27;20380;-45
2021/07/04 03:49:10;;;;;;;7.47;5.00;;;21.80;54.10;;;;;;5133859;27;20105;-44
2021/07/04 03:51:36;;;;;;;7.22;4.90;;;21.80;54.10;;;;;;5134280;27;20060;-47
2021/07/04 03:54:02;;;;;;;7.55;5.13;;;21.90;54.00;;;;;;5134042;27;20019;-46
2021/07/04 03:56:28;;;;;;;7.88;5.07;;;21.90;54.00;;;;;;5134201;27;20054;-47
2021/07/04 03:58:53;;;;;;;9.57;5.25;;;21.90;54.00;;;;;;5116067;27;20020;-45
2021/07/04 04:01:20;;;;;;;6.80;5.32;;;22.00;54.00;;;;;;5133888;27;20023;-48
2021/07/04 04:03:50;;;;;;;6.82;5.18;;;22.00;53.90;;;;;;5134032;27;20134;-46
2021/07/04 04:06:16;;;;;;;7.32;5.20;;;22.00;53.70;;;;;;5115336;27;20031;-46
2021/07/04 04:08:43;;;;;;;8.38;4.57;;;22.10;53.70;;;;;;5134052;27;20035;-49
2021/07/04 04:11:11;;;;;;;6.85;5.38;;;22.00;53.50;;;;;;5115333;27;20455;-45
2021/07/04 04:13:38;;;;;;;7.82;5.35;;;22.00;53.60;;;;;;5133814;27;20076;-44
2021/07/04 04:16:04;;;;;;;9.25;4.88;;;22.00;53.60;;;;;;5133615;27;20038;-48
2021/07/04 04:18:30;;;;;;;7.93;5.25;;;22.00;53.80;;;;;;5134156;27;20027;-49
2021/07/04 04:20:56;;;;;;;9.20;5.05;;;22.00;53.70;;;;;;5133985;27;20033;-44
2021/07/04 04:23:25;;;;;;;6.50;5.18;;;22.00;53.60;;;;;;5133671;27;20057;-48
2021/07/04 04:25:51;;;;;;;7.00;5.47;;;22.00;53.60;;;;;;5115407;27;20058;-47
2021/07/04 04:28:17;;;;;;;8.25;5.15;;;22.10;53.60;;;;;;5133483;27;20028;-44
2021/07/04 04:30:43;;;;;;;6.53;5.10;;;22.10;53.40;;;;;;5133923;27;20031;-48
2021/07/04 04:33:09;;;;;;;7.53;5.55;;;22.20;53.30;;;;;;5133392;27;20076;-43
2021/07/04 04:35:35;;;;;;;7.43;5.07;;;22.30;53.10;;;;;;5133633;27;20055;-44
2021/07/04 04:38:00;;;;;;;6.82;5.43;;;22.40;52.90;;;;;;5133396;27;20019;-47
2021/07/04 04:40:26;;;;;;;7.90;5.60;;;22.40;53.30;;;;;;5133746;27;20544;-44
2021/07/04 04:42:53;;;;;;;7.03;5.30;;;22.50;52.50;;;;;;5114930;27;20029;-46
2021/07/04 04:45:19;;;;;;;12.02;5.60;;;22.50;52.50;;;;;;5133031;27;20201;-45
2021/07/04 04:47:45;;;;;;;6.05;5.10;;;22.50;52.30;;;;;;5133604;27;20421;-44
2021/07/04 04:50:11;;;;;;;8.30;4.90;;;22.60;52.20;;;;;;5114725;27;20023;-45
2021/07/04 04:52:37;;;;;;;6.47;4.88;;;22.60;52.00;;;;;;5133589;27;20033;-45
2021/07/04 04:55:08;;;;;;;6.82;5.40;;;22.60;52.00;;;;;;5132655;27;20516;-44
2021/07/04 04:57:34;;;;;;;7.57;5.50;;;22.60;51.90;;;;;;5133743;27;20035;-46
2021/07/04 05:00:01;;;;;;;7.03;5.25;;;22.60;51.90;;;;;;5133302;27;20024;-47
2021/07/04 05:02:27;;;;;;;7.68;5.13;;;22.60;51.90;;;;;;5133244;27;20482;-44
2021/07/04 05:04:53;;;;;;;7.18;5.22;;;22.50;52.10;;;;;;5133030;27;20027;-43
2021/07/04 05:07:19;;;;;;;7.85;4.93;;;22.50;52.10;;;;;;5132425;28;20038;-47
2021/07/04 05:09:45;;;;;;;6.75;5.00;;;22.50;51.90;;;;;;5132916;28;20396;-50
2021/07/04 05:12:11;;;;;;;6.13;5.10;;;22.60;52.00;;;;;;5132799;28;20050;-43
2021/07/04 05:14:37;;;;;;;6.28;5.40;;;22.60;51.90;;;;;;5133173;28;20051;-43
2021/07/04 05:17:03;;;;;;;7.07;5.43;;;22.60;51.90;;;;;;5132769;28;20102;-47
2021/07/04 05:19:28;;;;;;;6.28;5.00;;;22.70;51.80;;;;;;5133253;28;20447;-43
2021/07/04 05:21:54;;;;;;;8.85;5.30;;;22.80;51.70;;;;;;5114549;28;20023;-43
2021/07/04 05:24:20;;;;;;;6.47;5.25;;;22.80;51.50;;;;;;5114397;28;20019;-44
2021/07/04 05:26:46;;;;;;;8.23;5.10;;;22.80;51.40;;;;;;5114719;28;20031;-43
2021/07/04 05:29:12;;;;;;;7.43;4.80;;;22.90;51.20;;;;;;5132303;28;20027;-46
2021/07/04 05:31:37;;;;;;;8.05;4.57;;;22.90;51.00;;;;;;5133060;28;20058;-44
2021/07/04 05:34:04;;;;;;;6.90;5.00;;;23.00;50.80;;;;;;5132840;28;20024;-50
2021/07/04 05:36:30;;;;;;;6.25;4.90;;;23.10;51.10;;;;;;5132823;28;20032;-46
2021/07/04 05:38:55;;;;;;;6.93;4.70;;;23.30;50.20;;;;;;5132964;28;20023;-49
2021/07/04 05:41:21;;;;;;;7.82;4.90;;;23.50;49.70;;;;;;5132492;28;20106;-46
2021/07/04 05:43:49;;;;;;;8.73;5.82;;;23.70;49.30;;;;;;5114373;28;20030;-50
2021/07/04 05:46:15;;;;;;;6.22;5.35;;;23.90;48.90;;;;;;5132102;28;20102;-45
2021/07/04 05:48:42;;;;;;;6.38;5.22;;;24.00;49.00;;;;;;5132916;28;20116;-46
2021/07/04 05:51:09;;;;;;;6.75;5.25;;;24.20;48.90;;;;;;5132389;28;20027;-45
2021/07/04 05:53:35;;;;;;;8.32;5.32;;;24.20;48.60;;;;;;5132849;27;20536;-43
2021/07/04 05:56:00;;;;;;;7.22;4.90;;;24.40;48.10;;;;;;5135443;27;20135;-47
2021/07/04 05:58:26;;;;;;;7.57;5.55;;;24.60;47.70;;;;;;5136351;27;20062;-45
2021/07/04 06:00:52;;;;;;;9.40;5.90;;;24.80;48.40;;;;;;5135839;27;20383;-44
2021/07/04 06:03:18;;;;;;;7.38;5.57;;;24.90;48.30;;;;;;5115840;27;20047;-45
2021/07/04 06:05:43;;;;;;;7.53;5.45;;;25.00;47.90;;;;;;5135150;27;20027;-42
2021/07/04 06:08:09;;;;;;;7.13;5.95;;;25.20;47.50;;;;;;5135044;27;20384;-43
2021/07/04 06:10:35;;;;;;;7.72;5.00;;;25.40;47.20;;;;;;5135208;27;20050;-43
2021/07/04 06:13:02;;;;;;;9.02;5.53;;;25.60;46.80;;;;;;5135676;27;20023;-43
2021/07/04 06:15:28;;;;;;;7.05;5.57;;;25.80;46.20;;;;;;5135248;27;20023;-47
2021/07/04 06:17:54;;;;;;;7.72;5.72;;;25.80;46.10;;;;;;5117336;27;20365;-46
2021/07/04 06:20:20;;;;;;;9.50;5.53;;;26.10;45.90;;;;;;5135332;27;20026;-42
2021/07/04 06:22:47;;;;;;;8.23;5.22;;;26.40;45.40;;;;;;5136151;27;20054;-45
2021/07/04 06:25:14;;;;;;;11.43;5.60;;;26.70;44.70;;;;;;5135690;27;20057;-48
2021/07/04 06:27:40;;;;;;;6.53;5.15;;;26.80;44.10;;;;;;5135956;27;20498;-43
2021/07/04 06:30:11;;;;;;;5.55;4.82;;;26.90;42.70;;;;;;5135640;27;20031;-49
2021/07/04 06:32:38;;;;;;;5.38;4.50;;;27.00;41.80;;;;;;5117653;27;20034;-45
2021/07/04 06:35:06;;;;;;;6.32;4.80;;;27.10;41.30;;;;;;5135895;27;20030;-45
2021/07/04 06:37:32;;;;;;;7.57;4.15;;;27.30;40.70;;;;;;5117462;27;20070;-49
2021/07/04 06:39:57;;;;;;;9.18;4.30;;;27.30;40.30;;;;;;5117417;27;20063;-46
2021/07/04 06:42:23;;;;;;;6.43;4.68;;;27.40;40.20;;;;;;5135313;27;20019;-46
2021/07/04 06:44:49;;;;;;;7.80;4.55;;;27.40;40.00;;;;;;5135550;27;20431;-47
2021/07/04 06:47:15;;;;;;;5.47;4.25;;;27.50;39.80;;;;;;5134979;27;20118;-46
2021/07/04 06:49:41;;;;;;;7.78;4.72;;;27.60;39.50;;;;;;5135798;27;20106;-50
2021/07/04 06:52:07;;;;;;;5.57;4.65;;;27.80;39.00;;;;;;5135586;27;20058;-50
2021/07/04 06:54:33;;;;;;;6.78;4.60;;;28.00;39.50;;;;;;5135637;27;20030;-46
2021/07/04 06:57:26;;;;;;;5.53;4.20;;;28.20;38.40;;;;;;5116980;27;20464;-44
2021/07/04 06:59:44;;;;;;;4.95;4.45;;;28.70;38.20;;;;;;5134974;27;20031;-45
2021/07/04 07:02:10;;;;;;;6.15;4.40;;;29.20;37.50;;;;;;5134800;27;20391;-49
2021/07/04 07:04:36;;;;;;;5.05;4.53;;;29.60;37.20;;;;;;5116485;27;20403;-48
2021/07/04 07:07:02;;;;;;;6.20;4.93;;;30.10;36.00;;;;;;5134729;27;20030;-45
2021/07/04 07:09:27;;;;;;;5.20;4.70;;;30.50;35.30;;;;;;5116200;27;20031;-45
2021/07/04 07:11:53;;;;;;;7.70;4.80;;;30.90;34.90;;;;;;5135129;27;20019;-49
2021/07/04 07:14:21;;;;;;;4.70;4.22;;;31.10;34.50;;;;;;5134441;27;20114;-44
2021/07/04 07:16:47;;;;;;;5.88;4.70;;;31.60;33.90;;;;;;5135106;27;20035;-49
2021/07/04 07:19:13;;;;;;;5.22;4.50;;;32.60;33.20;;;;;;5134464;27;20023;-48
2021/07/04 07:21:39;;;;;;;5.72;4.53;;;34.50;31.70;;;;;;5134921;27;20072;-47
2021/07/04 07:24:05;;;;;;;6.63;4.70;;;36.10;29.70;;;;;;5134774;27;20027;-47
2021/07/04 07:26:31;;;;;;;5.28;4.72;;;37.90;28.80;;;;;;5133795;27;20440;-46
2021/07/04 07:28:58;;;;;;;5.53;5.03;;;40.00;27.40;;;;;;5134528;27;20035;-46
2021/07/04 07:31:23;;;;;;;6.70;4.90;;;41.60;26.00;;;;;;5133906;27;20518;-46
2021/07/04 07:33:49;;;;;;;9.02;5.20;;;43.20;25.40;;;;;;5134416;27;20095;-46
2021/07/04 07:36:15;;;;;;;4.15;3.75;;;44.60;24.50;;;;;;5115843;27;20042;-47
2021/07/04 07:38:41;;;;;;;5.60;4.30;;;45.80;23.60;;;;;;5134280;27;20448;-45
2021/07/04 07:41:06;;;;;;;5.00;3.70;;;44.00;23.00;;;;;;5134362;27;20076;-46
2021/07/04 07:43:32;;;;;;;6.22;4.07;;;40.80;24.40;;;;;;5133805;27;20071;-43
2021/07/04 07:45:58;;;;;;;5.80;4.20;;;39.50;25.40;;;;;;5134395;27;20054;-45
2021/07/04 07:48:24;;;;;;;5.07;4.15;;;39.10;26.30;;;;;;5133562;27;20031;-47
2021/07/04 07:50:49;;;;;;;5.00;4.30;;;41.50;25.40;;;;;;5134523;27;20023;-45
2021/07/04 07:53:15;;;;;;;8.40;6.75;;;42.10;24.70;;;;;;5133517;27;20383;-45
2021/07/04 07:55:41;;;;;;;8.77;6.30;;;40.80;24.90;;;;;;5134300;27;20076;-43
2021/07/04 07:58:07;;;;;;;5.50;5.00;;;40.10;25.60;;;;;;5115854;27;20027;-45
2021/07/04 08:00:33;;;;;;;6.40;4.50;;;41.40;25.30;;;;;;5133595;27;20136;-46
2021/07/04 08:02:59;;;;;;;5.32;4.15;;;42.80;24.50;;;;;;5133877;27;20075;-44
2021/07/04 08:05:24;;;;;;;4.43;4.00;;;42.20;24.30;;;;;;5133515;27;20474;-43
2021/07/04 08:07:50;;;;;;;5.55;4.70;;;40.60;24.90;;;;;;5133851;27;20028;-52
2021/07/04 08:10:16;;;;;;;5.07;4.50;;;39.70;25.50;;;;;;5133357;27;20023;-45
2021/07/04 08:12:43;;;;;;;5.53;4.30;;;39.40;25.90;;;;;;5134118;27;20098;-45
2021/07/04 08:15:10;;;;;;;5.53;4.40;;;40.00;25.80;;;;;;5134061;27;20030;-45
2021/07/04 08:17:36;;;;;;;5.55;4.30;;;39.70;25.80;;;;;;5132387;27;20080;-45
2021/07/04 08:20:04;;;;;;;5.10;4.40;;;38.80;26.30;;;;;;5133525;27;20417;-47
2021/07/04 08:22:30;;;;;;;5.28;4.47;;;38.10;26.80;;;;;;5133297;27;20373;-43
2021/07/04 08:24:55;;;;;;;5.25;4.40;;;37.20;27.50;;;;;;5133704;27;20030;-51
2021/07/04 08:27:21;;;;;;;6.20;4.78;;;36.30;28.10;;;;;;5114624;27;20488;-49
2021/07/04 08:29:47;;;;;;;9.80;5.22;;;35.40;28.70;;;;;;5133688;27;20033;-48
2021/07/04 08:32:31;;;;;;;5.00;4.50;;;34.60;29.50;;;;;;5133241;27;20050;-46
2021/07/04 08:34:57;;;;;;;5.72;4.85;;;33.80;30.40;;;;;;5133542;27;20019;-46
2021/07/04 08:37:23;;;;;;;5.65;4.78;;;33.10;31.20;;;;;;5132887;27;20028;-43
2021/07/04 08:39:48;;;;;;;5.68;5.07;;;32.60;32.10;;;;;;5115014;27;20030;-46
2021/07/04 08:42:14;;;;;;;6.90;4.85;;;32.40;32.50;;;;;;5114744;27;20052;-45
2021/07/04 08:44:48;;;;;;;7.60;5.20;;;32.10;33.40;;;;;;5114046;27;20023;-46
2021/07/04 08:47:16;;;;;;;6.55;5.40;;;31.90;34.20;;;;;;5132972;27;20054;-47
2021/07/04 08:49:41;;;;;;;11.05;5.40;;;31.90;34.30;;;;;;5114700;27;20368;-52
2021/07/04 08:52:07;;;;;;;6.53;5.20;;;31.80;33.90;;;;;;5133193;27;20023;-49
2021/07/04 08:54:33;;;;;;;5.50;5.00;;;31.70;34.00;;;;;;5132615;27;20023;-49
2021/07/04 08:56:59;;;;;;;6.75;4.70;;;31.60;34.10;;;;;;5113785;27;20479;-45
2021/07/04 08:59:24;;;;;;;5.22;4.72;;;31.50;34.20;;;;;;5132201;27;20029;-50
2021/07/04 09:01:50;;;;;;;5.10;4.28;;;31.60;34.30;;;;;;5114660;27;20042;-45
2021/07/04 09:04:19;;;;;;;5.93;4.53;;;31.90;34.10;;;;;;5132750;27;20062;-46
2021/07/04 09:06:49;;;;;;;5.72;5.03;;;32.00;34.00;;;;;;5114169;28;20031;-47
2021/07/04 09:09:20;;;;;;;9.77;5.32;;;32.60;33.40;;;;;;5132930;28;20019;-44
2021/07/04 09:12:04;;;;;;;5.03;4.53;;;33.10;33.00;;;;;;5114354;28;20115;-45
2021/07/04 09:14:32;;;;;;;8.18;5.57;;;33.40;32.40;;;;;;5132170;28;20043;-46
2021/07/04 09:16:59;;;;;;;6.63;5.22;;;34.20;31.90;;;;;;5132888;28;20027;-47
2021/07/04 09:19:25;;;;;;;5.82;5.15;;;35.40;30.80;;;;;;5132999;28;20047;-48
2021/07/04 09:21:56;;;;;;;7.45;5.10;;;36.80;29.60;;;;;;5133069;28;20098;-49
2021/07/04 09:24:24;;;;;;;6.40;4.40;;;38.30;28.30;;;;;;5132139;28;20054;-46
2021/07/04 09:26:50;;;;;;;5.53;4.55;;;38.00;27.60;;;;;;5133045;28;20034;-41
2021/07/04 09:29:15;;;;;;;7.07;4.30;;;36.60;28.30;;;;;;5116126;27;20193;-45
2021/07/04 09:31:42;;;;;;;5.63;4.70;;;35.30;29.30;;;;;;5136619;27;20473;-44
2021/07/04 09:34:10;;;;;;;4.70;4.20;;;34.50;30.40;;;;;;5136930;27;20046;-44
2021/07/04 09:36:39;;;;;;;5.20;4.40;;;34.00;30.00;;;;;;5117684;27;20039;-44
2021/07/04 09:39:16;;;;;;;6.57;4.65;;;33.90;30.20;;;;;;5136808;27;20027;-43
2021/07/04 09:42:07;;;;;;;8.55;4.93;;;33.80;30.60;;;;;;5136198;27;20024;-46
2021/07/04 09:44:33;;;;;;;7.03;5.22;;;33.60;30.60;;;;;;5136298;27;20024;-46
2021/07/04 09:47:17;;;;;;;6.15;4.95;;;33.70;30.30;;;;;;5136839;27;20030;-47
2021/07/04 09:49:44;;;;;;;5.47;4.30;;;33.80;30.10;;;;;;5136356;27;20038;-46
2021/07/04 09:52:17;;;;;;;8.50;4.43;;;33.90;30.30;;;;;;5136707;27;20019;-42
2021/07/04 09:55:00;;;;;;;6.53;4.38;;;33.70;30.10;;;;;;5117871;27;20061;-45
2021/07/04 09:57:28;;;;;;;5.18;4.28;;;33.70;30.40;;;;;;5135882;27;20054;-45
2021/07/04 10:00:17;;;;;;;4.75;4.20;;;33.50;30.00;;;;;;5136478;27;20024;-46
2021/07/04 10:03:11;;;;;;;4.93;4.18;;;33.30;30.00;;;;;;5116842;27;20046;-46
2021/07/04 10:05:59;;;;;;;5.88;3.95;;;33.60;30.00;;;;;;5135385;27;20464;-47
2021/07/04 10:08:36;;;;;;;6.25;4.50;;;33.60;29.80;;;;;;5135548;27;20028;-43
2021/07/04 10:11:06;;;;;;;6.93;4.40;;;33.20;29.70;;;;;;5136328;27;20027;-50
2021/07/04 10:13:36;;;;;;;5.25;4.40;;;32.80;30.40;;;;;;5117030;27;20027;-44
2021/07/04 10:16:03;;;;;;;4.90;4.40;;;32.90;30.90;;;;;;5117591;27;20037;-48
2021/07/04 10:18:28;;;;;;;6.50;4.47;;;33.10;30.90;;;;;;5116770;27;20039;-49
2021/07/04 10:20:55;;;;;;;7.25;5.05;;;33.30;30.80;;;;;;5135412;27;20380;-48
2021/07/04 10:23:26;;;;;;;5.13;4.63;;;33.40;30.70;;;;;;5116769;27;20027;-46
2021/07/04 10:25:53;;;;;;;5.65;4.80;;;33.50;31.00;;;;;;5135531;27;20084;-46
2021/07/04 10:28:31;;;;;;;5.88;4.60;;;33.50;31.20;;;;;;5135773;27;20031;-45
2021/07/04 10:31:00;;;;;;;4.80;4.30;;;33.30;31.70;;;;;;5135788;27;20110;-48
2021/07/04 10:33:34;;;;;;;7.00;4.32;;;33.40;31.60;;;;;;5116514;27;20027;-49
2021/07/04 10:36:21;;;;;;;7.25;4.78;;;33.40;31.40;;;;;;5135822;27;20023;-45
2021/07/04 10:38:57;;;;;;;8.68;7.45;;;33.10;31.80;;;;;;5134586;27;20023;-46
2021/07/04 10:41:33;;;;;;;9.05;5.45;;;32.90;32.30;;;;;;5134811;27;20016;-46
2021/07/04 10:44:01;;;;;;;5.00;4.45;;;32.60;32.30;;;;;;5116539;27;20356;-48
2021/07/04 10:46:55;;;;;;;7.70;4.97;;;32.00;32.30;;;;;;5134286;27;20034;-48
2021/07/04 10:49:32;;;;;;;6.20;4.95;;;31.20;34.30;;;;;;5133876;27;20059;-43
2021/07/04 10:52:06;;;;;;;5.13;4.60;;;30.90;34.60;;;;;;5135405;27;20016;-48
2021/07/04 10:54:42;;;;;;;7.45;4.70;;;30.70;33.70;;;;;;5135167;27;20015;-44
2021/07/04 10:57:27;;;;;;;6.25;4.45;;;30.50;33.90;;;;;;5135218;27;20019;-47
2021/07/04 11:00:02;;;;;;;7.05;4.63;;;30.40;34.10;;;;;;5135111;27;20027;-47
2021/07/04 11:02:54;;;;;;;6.88;5.18;;;30.20;35.50;;;;;;5115994;27;20023;-46
2021/07/04 11:05:32;;;;;;;6.65;4.47;;;30.20;34.60;;;;;;5134915;27;20031;-49
2021/07/04 11:07:57;;;;;;;6.10;4.13;;;30.20;33.30;;;;;;5134748;27;20034;-47
2021/07/04 11:10:26;;;;;;;5.30;4.32;;;30.00;32.80;;;;;;5116496;27;20027;-49
2021/07/04 11:13:13;;;;;;;5.63;4.85;;;30.00;34.00;;;;;;5116458;27;20095;-47
2021/07/04 11:15:40;;;;;;;6.07;4.22;;;29.90;34.90;;;;;;5115483;27;20023;-44
2021/07/04 11:18:07;;;;;;;5.43;3.70;;;29.80;34.00;;;;;;5134531;27;20135;-45
2021/07/04 11:20:38;;;;;;;3.38;2.75;;;29.70;31.70;;;;;;5115781;27;20027;-47
2021/07/04 11:23:08;;;;;;;3.80;3.20;;;29.70;29.80;;;;;;5134332;27;20019;-50
2021/07/04 11:25:38;;;;;;;3.72;2.97;;;29.70;30.20;;;;;;5133423;27;20016;-44
2021/07/04 11:28:16;;;;;;;4.50;3.65;;;29.90;29.80;;;;;;5133931;27;20027;-47
2021/07/04 11:30:48;;;;;;;5.32;3.40;;;29.90;29.90;;;;;;5133498;27;20039;-52
2021/07/04 11:33:36;;;;;;;6.20;3.45;;;29.90;30.00;;;;;;5134323;27;20062;-45
2021/07/04 11:36:17;;;;;;;6.60;3.88;;;29.90;30.40;;;;;;5134184;27;20046;-46
2021/07/04 11:38:56;;;;;;;5.88;4.50;;;29.80;30.90;;;;;;5133685;27;20144;-48
2021/07/04 11:41:24;;;;;;;5.10;3.78;;;29.80;31.10;;;;;;5134115;27;20391;-47
2021/07/04 11:43:56;;;;;;;8.38;5.35;;;30.00;31.40;;;;;;5133651;27;20046;-49
2021/07/04 11:46:24;;;;;;;6.25;4.22;;;30.20;31.20;;;;;;5115232;27;20468;-49
2021/07/04 11:48:57;;;;;;;8.75;3.30;;;30.20;30.00;;;;;;5132771;27;20254;-46
2021/07/04 11:51:25;;;;;;;6.10;3.88;;;29.80;29.80;;;;;;5133632;27;20020;-45
2021/07/04 11:53:55;;;;;;;5.28;3.92;;;29.80;30.20;;;;;;5132576;27;20030;-45
2021/07/04 11:56:21;;;;;;;5.22;3.90;;;29.80;30.00;;;;;;5115232;27;20030;-45
2021/07/04 11:58:46;;;;;;;5.90;4.10;;;30.10;30.80;;;;;;5132984;27;20118;-46
2021/07/04 12:01:21;;;;;;;5.60;4.00;;;30.20;30.10;;;;;;5133536;27;20114;-46
2021/07/04 12:03:53;;;;;;;6.35;4.15;;;30.20;29.60;;;;;;5133165;27;20498;-48
2021/07/04 12:06:20;;;;;;;4.47;3.72;;;30.30;29.80;;;;;;5133406;27;20027;-44
2021/07/04 12:08:55;;;;;;;6.05;4.88;;;30.60;29.60;;;;;;5114644;27;20053;-49
2021/07/04 12:11:52;;;;;;;7.63;6.00;;;30.70;29.60;;;;;;5115187;27;20074;-43
2021/07/04 12:14:28;;;;;;;4.63;4.05;;;31.00;29.50;;;;;;5133812;27;20388;-47
2021/07/04 12:16:55;;;;;;;4.30;3.60;;;31.20;29.50;;;;;;5114829;27;20019;-42
2021/07/04 12:19:30;;;;;;;5.90;3.83;;;31.30;29.00;;;;;;5133335;27;20024;-46
2021/07/04 12:21:56;;;;;;;9.00;6.20;;;31.50;29.00;;;;;;5114464;27;20023;-46
2021/07/04 12:24:34;;;;;;;5.53;4.28;;;31.50;29.10;;;;;;5114921;27;20023;-43
2021/07/04 12:27:00;;;;;;;5.05;3.58;;;31.60;29.10;;;;;;5114948;27;20031;-44
2021/07/04 12:29:26;;;;;;;4.43;3.58;;;31.80;29.10;;;;;;5133021;27;20464;-43
2021/07/04 12:32:05;;;;;;;6.07;3.95;;;32.00;28.90;;;;;;5132769;27;20076;-45
2021/07/04 12:34:33;;;;;;;6.57;3.80;;;32.40;28.50;;;;;;5132965;27;20472;-43
2021/07/04 12:37:00;;;;;;;3.75;3.08;;;32.70;28.30;;;;;;5114887;27;20027;-45
2021/07/04 12:39:34;;;;;;;5.25;3.65;;;32.90;27.60;;;;;;5133227;27;20027;-44
2021/07/04 12:42:00;;;;;;;14.45;12.15;;;32.80;27.60;;;;;;5132633;27;20027;-47
2021/07/04 12:44:26;;;;;;;13.23;11.40;;;32.80;27.90;;;;;;5114629;27;20438;-46
2021/07/04 12:46:52;;;;;;;42.17;36.50;;;32.70;27.80;;;;;;5113869;27;20377;-42
2021/07/04 12:49:18;;;;;;;38.17;33.75;;;32.50;28.00;;;;;;5132881;27;20083;-44
2021/07/04 12:51:46;;;;;;;9.40;8.43;;;32.30;28.30;;;;;;5132200;27;20102;-47